Time;durP1;ratioP1;P1;durP2;ratioP2;P2;SDS_P1;SDS_P2;PMS_P1;PMS_P2;Temp;Humidity;BMP_temperature;BMP_pressure;BME280_temperature;BME280_humidity;BME280_pressure;Samples;Min_cycle;Max_cycle;Signal;HPM_P1;HPM_P2
2022/05/08 00:00:49;;;;;;;6.15;4.70;;;15.40;99.90;;;;;;5135075;27;20098;-82
2022/05/08 00:03:35;;;;;;;8.85;5.10;;;15.20;99.90;;;;;;5127440;27;20054;-84
2022/05/08 00:06:21;;;;;;;7.85;5.32;;;15.20;99.90;;;;;;5135080;27;20082;-85
2022/05/08 00:09:06;;;;;;;9.10;5.38;;;15.00;99.90;;;;;;5119903;27;20054;-85
2022/05/08 00:11:52;;;;;;;7.22;4.75;;;15.00;99.90;;;;;;5121979;27;20042;-83
2022/05/08 00:14:39;;;;;;;8.30;4.97;;;15.10;99.90;;;;;;5092173;28;20059;-82
2022/05/08 00:17:25;;;;;;;8.82;5.10;;;15.00;99.90;;;;;;5114160;28;20066;-79
2022/05/08 00:20:12;;;;;;;10.52;5.53;;;14.90;99.90;;;;;;5113923;28;20517;-82
2022/05/08 00:22:57;;;;;;;9.73;4.90;;;14.90;99.90;;;;;;5113658;28;20046;-81
2022/05/08 00:25:43;;;;;;;7.40;5.38;;;15.00;99.90;;;;;;5109120;28;20038;-84
2022/05/08 00:28:29;;;;;;;9.43;5.10;;;14.90;99.90;;;;;;5108720;28;20054;-75
2022/05/08 00:31:15;;;;;;;7.47;5.30;;;14.90;99.90;;;;;;5105016;28;20038;-82
2022/05/08 00:34:02;;;;;;;7.18;4.93;;;14.90;99.90;;;;;;5109022;28;20051;-75
2022/05/08 00:36:48;;;;;;;8.68;5.00;;;14.90;99.90;;;;;;5108603;28;20054;-86
2022/05/08 00:39:34;;;;;;;8.00;5.05;;;14.70;99.90;;;;;;5113840;28;20051;-84
2022/05/08 00:42:20;;;;;;;11.93;5.22;;;14.60;99.90;;;;;;5113150;28;20501;-76
2022/05/08 00:45:06;;;;;;;8.63;6.25;;;14.60;99.90;;;;;;5097621;28;20185;-75
2022/05/08 00:47:54;;;;;;;11.63;4.88;;;14.70;99.90;;;;;;5098133;28;20081;-75
2022/05/08 00:50:40;;;;;;;8.40;5.75;;;14.70;99.90;;;;;;5113560;28;20052;-82
2022/05/08 00:53:28;;;;;;;8.80;5.40;;;14.70;99.90;;;;;;5114557;27;20062;-79
2022/05/08 00:56:16;;;;;;;8.23;5.10;;;14.70;99.90;;;;;;5134167;27;20123;-79
2022/05/08 00:59:02;;;;;;;9.57;5.32;;;14.80;99.90;;;;;;5133859;27;20135;-80
2022/05/08 01:01:47;;;;;;;9.25;5.45;;;14.90;99.90;;;;;;5128259;27;20050;-76
2022/05/08 01:04:33;;;;;;;8.07;5.07;;;14.90;99.90;;;;;;5133754;27;20053;-79
2022/05/08 01:07:21;;;;;;;7.10;4.70;;;14.90;99.90;;;;;;5133673;27;20508;-79
2022/05/08 01:10:09;;;;;;;7.88;5.07;;;14.90;99.90;;;;;;5118308;27;20101;-76
2022/05/08 01:12:54;;;;;;;9.43;5.18;;;15.00;99.90;;;;;;5098485;28;20043;-80
2022/05/08 01:15:44;;;;;;;11.82;5.28;;;15.00;99.90;;;;;;5112859;28;20065;-79
2022/05/08 01:18:30;;;;;;;8.40;5.07;;;15.00;99.90;;;;;;5097393;28;20054;-77
2022/05/08 01:21:18;;;;;;;9.52;5.50;;;15.10;99.90;;;;;;5113021;28;20501;-79
2022/05/08 01:24:04;;;;;;;8.30;4.72;;;15.20;99.90;;;;;;5112498;28;20185;-80
2022/05/08 01:26:50;;;;;;;9.13;5.13;;;15.20;99.90;;;;;;5097785;28;20517;-75
2022/05/08 01:29:36;;;;;;;7.07;5.00;;;15.00;99.90;;;;;;5097197;28;20099;-81
2022/05/08 01:32:22;;;;;;;9.57;5.20;;;14.90;99.90;;;;;;5112708;28;20051;-73
2022/05/08 01:35:08;;;;;;;7.90;4.70;;;14.70;99.90;;;;;;5112421;28;20050;-79
2022/05/08 01:37:54;;;;;;;8.20;4.50;;;14.60;99.90;;;;;;5112797;28;20139;-76
2022/05/08 01:40:41;;;;;;;7.32;4.68;;;14.80;99.90;;;;;;5112631;28;20120;-78
2022/05/08 01:43:31;;;;;;;9.35;4.70;;;14.90;99.90;;;;;;5097212;28;20100;-82
2022/05/08 01:46:17;;;;;;;11.30;5.43;;;14.90;99.90;;;;;;5112586;28;20183;-83
2022/05/08 01:49:03;;;;;;;7.25;4.72;;;15.00;99.90;;;;;;5097312;28;20051;-81
2022/05/08 01:51:49;;;;;;;6.72;4.53;;;14.70;99.90;;;;;;5112426;28;20043;-81
2022/05/08 01:54:35;;;;;;;9.23;5.20;;;14.80;99.90;;;;;;5123389;27;20050;-83
2022/05/08 01:57:21;;;;;;;8.30;5.30;;;14.70;99.90;;;;;;5132859;27;20164;-80
2022/05/08 02:00:07;;;;;;;8.93;4.93;;;14.80;99.90;;;;;;5132226;27;20183;-77
2022/05/08 02:02:54;;;;;;;7.45;5.18;;;14.80;99.90;;;;;;5117273;27;20131;-81
2022/05/08 02:05:41;;;;;;;9.13;4.45;;;14.90;99.90;;;;;;5117172;27;20074;-82
2022/05/08 02:08:27;;;;;;;9.00;5.05;;;14.90;99.90;;;;;;5132805;27;20531;-83
2022/05/08 02:11:13;;;;;;;8.35;4.75;;;15.00;99.90;;;;;;5132245;27;20045;-82
2022/05/08 02:13:59;;;;;;;10.40;4.75;;;15.00;99.90;;;;;;5132841;27;20046;-80
2022/05/08 02:16:45;;;;;;;6.70;5.00;;;14.90;99.90;;;;;;5117168;28;20148;-81
2022/05/08 02:19:31;;;;;;;6.70;4.55;;;15.00;99.90;;;;;;5116829;28;20050;-78
2022/05/08 02:22:17;;;;;;;7.32;4.50;;;14.80;99.90;;;;;;5117288;28;20661;-85
2022/05/08 02:25:04;;;;;;;6.93;4.82;;;14.80;99.90;;;;;;5132640;28;20042;-84
2022/05/08 02:27:51;;;;;;;9.52;5.10;;;14.90;99.90;;;;;;5117612;28;20054;-84
2022/05/08 02:30:37;;;;;;;7.07;4.85;;;15.00;99.90;;;;;;5132337;28;20070;-83
2022/05/08 02:33:23;;;;;;;7.25;4.82;;;14.70;99.90;;;;;;5132424;28;20528;-83
2022/05/08 02:36:09;;;;;;;7.85;4.50;;;14.60;99.90;;;;;;5132562;28;20177;-85
2022/05/08 02:38:55;;;;;;;7.63;4.68;;;14.60;99.90;;;;;;5132471;28;20049;-78
2022/05/08 02:41:41;;;;;;;6.88;4.35;;;14.50;99.90;;;;;;5116903;28;20053;-81
2022/05/08 02:44:27;;;;;;;9.30;5.50;;;14.60;99.90;;;;;;5132567;28;20115;-79
2022/05/08 02:47:13;;;;;;;6.80;4.70;;;14.50;99.90;;;;;;5132221;28;20054;-81
2022/05/08 02:49:59;;;;;;;7.45;5.10;;;14.40;99.90;;;;;;5132557;28;20535;-81
2022/05/08 02:52:47;;;;;;;6.88;4.53;;;14.30;99.90;;;;;;5132584;28;20051;-80
2022/05/08 02:58:37;;;;;;;8.80;4.88;;;14.20;99.90;;;;;;5131888;28;20042;-81
2022/05/08 03:01:23;;;;;;;10.98;5.30;;;14.10;99.90;;;;;;5132074;28;20045;-79
2022/05/08 03:04:09;;;;;;;6.53;5.05;;;14.10;99.90;;;;;;5132465;28;20188;-79
2022/05/08 03:06:55;;;;;;;11.02;5.63;;;14.10;99.90;;;;;;5132106;28;20578;-80
2022/05/08 03:09:41;;;;;;;8.50;5.30;;;14.10;99.90;;;;;;5133371;27;20405;-80
2022/05/08 03:12:27;;;;;;;7.13;5.60;;;14.10;99.90;;;;;;5135622;27;20042;-81
2022/05/08 03:15:13;;;;;;;8.80;5.60;;;14.20;99.90;;;;;;5135999;27;20493;-81
2022/05/08 03:17:59;;;;;;;10.50;5.03;;;14.30;99.90;;;;;;5135654;27;20054;-78
2022/05/08 03:20:44;;;;;;;6.18;4.97;;;14.20;99.90;;;;;;5135572;27;20049;-81
2022/05/08 03:23:31;;;;;;;7.85;5.57;;;14.20;99.90;;;;;;5120464;27;20054;-80
2022/05/08 03:26:19;;;;;;;8.65;5.75;;;14.10;99.90;;;;;;5120310;27;20078;-83
2022/05/08 03:29:07;;;;;;;10.55;5.35;;;14.20;99.90;;;;;;5135838;27;20061;-83
2022/05/08 03:31:54;;;;;;;7.82;5.13;;;14.20;99.90;;;;;;5135647;27;20050;-81
2022/05/08 03:34:39;;;;;;;7.72;5.10;;;14.00;99.90;;;;;;5135385;27;20054;-78
2022/05/08 03:37:25;;;;;;;7.30;5.13;;;14.00;99.90;;;;;;5135662;27;20157;-82
2022/05/08 03:40:11;;;;;;;9.70;5.57;;;14.00;99.90;;;;;;5135681;27;20062;-78
2022/05/08 03:42:58;;;;;;;9.52;5.15;;;14.00;99.90;;;;;;5135411;27;20042;-81
2022/05/08 03:45:44;;;;;;;8.70;5.30;;;14.00;99.90;;;;;;5135456;27;20555;-83
2022/05/08 03:48:30;;;;;;;9.00;6.20;;;14.00;99.90;;;;;;5134941;27;20054;-83
2022/05/08 03:51:15;;;;;;;7.53;4.90;;;14.00;99.90;;;;;;5135302;27;20050;-82
2022/05/08 03:54:02;;;;;;;12.93;5.22;;;14.10;99.90;;;;;;5119597;27;20057;-85
2022/05/08 03:56:47;;;;;;;16.13;6.53;;;14.20;99.90;;;;;;5120069;27;20119;-78
2022/05/08 03:59:33;;;;;;;11.70;5.47;;;14.10;99.90;;;;;;5134934;27;20053;-74
2022/05/08 04:02:19;;;;;;;8.98;5.95;;;14.10;99.90;;;;;;5135394;27;20050;-84
2022/05/08 04:05:06;;;;;;;11.27;5.90;;;14.10;99.90;;;;;;5135092;27;20517;-81
2022/05/08 04:07:52;;;;;;;8.52;5.53;;;14.00;99.90;;;;;;5134961;27;20623;-75
2022/05/08 04:10:38;;;;;;;7.30;5.20;;;14.10;99.90;;;;;;5134666;27;20515;-74
2022/05/08 04:13:24;;;;;;;7.15;5.07;;;14.20;99.90;;;;;;5135084;27;20057;-74
2022/05/08 04:16:16;;;;;;;10.43;5.75;;;14.30;99.90;;;;;;5134463;27;20070;-78
2022/05/08 04:19:02;;;;;;;8.10;5.47;;;14.20;99.90;;;;;;5134588;27;20058;-79
2022/05/08 04:21:48;;;;;;;8.60;5.60;;;14.30;99.90;;;;;;5133770;27;20092;-79
2022/05/08 04:24:34;;;;;;;8.55;5.10;;;14.30;99.90;;;;;;5134390;27;20058;-79
2022/05/08 04:27:20;;;;;;;8.95;5.30;;;14.40;99.90;;;;;;5134514;27;20576;-86
2022/05/08 04:30:06;;;;;;;8.35;5.15;;;14.40;99.90;;;;;;5134713;27;20426;-83
2022/05/08 04:32:52;;;;;;;11.20;5.40;;;14.60;99.90;;;;;;5134741;27;20437;-84
2022/05/08 04:35:38;;;;;;;7.32;5.05;;;14.30;99.90;;;;;;5134384;27;20072;-85
2022/05/08 04:38:24;;;;;;;7.75;5.40;;;14.40;99.90;;;;;;5118563;27;20046;-84
2022/05/08 04:41:10;;;;;;;8.70;5.50;;;14.60;99.90;;;;;;5119267;27;20131;-84
2022/05/08 04:44:00;;;;;;;9.25;5.47;;;14.60;99.90;;;;;;5134176;27;20054;-82
2022/05/08 04:46:46;;;;;;;6.85;5.40;;;14.70;99.90;;;;;;5134321;27;20054;-80
2022/05/08 04:49:32;;;;;;;8.50;5.60;;;14.60;99.90;;;;;;5134239;27;20421;-83
2022/05/08 04:52:18;;;;;;;9.05;5.50;;;14.60;99.90;;;;;;5134117;27;20049;-84
2022/05/08 04:55:05;;;;;;;10.57;5.82;;;14.60;99.90;;;;;;5133661;27;20078;-84
2022/05/08 04:57:51;;;;;;;7.50;5.30;;;14.40;99.90;;;;;;5118391;27;20061;-84
2022/05/08 05:00:37;;;;;;;9.20;5.50;;;14.50;99.90;;;;;;5133874;27;20146;-84
2022/05/08 05:03:22;;;;;;;9.82;6.40;;;14.20;99.90;;;;;;5118682;27;20074;-82
2022/05/08 05:06:08;;;;;;;7.93;5.50;;;14.50;99.90;;;;;;5133210;27;20050;-78
2022/05/08 05:08:54;;;;;;;11.02;5.65;;;14.70;99.90;;;;;;5133723;27;20512;-78
2022/05/08 05:11:40;;;;;;;11.80;5.53;;;14.70;99.90;;;;;;5133696;27;20057;-79
2022/05/08 05:14:30;;;;;;;8.38;5.07;;;14.80;99.90;;;;;;5133854;27;20050;-80
2022/05/08 05:17:15;;;;;;;9.55;5.32;;;14.90;99.90;;;;;;5133468;27;20088;-81
2022/05/08 05:20:03;;;;;;;7.90;5.03;;;14.90;99.90;;;;;;5133310;27;20046;-80
2022/05/08 05:22:49;;;;;;;10.40;4.85;;;15.00;99.90;;;;;;5133381;27;20043;-79
2022/05/08 05:25:35;;;;;;;9.32;4.95;;;15.00;99.90;;;;;;5118347;27;20050;-76
2022/05/08 05:28:21;;;;;;;10.63;5.25;;;15.00;99.90;;;;;;5117647;27;20058;-76
2022/05/08 05:31:07;;;;;;;11.80;5.72;;;15.00;99.90;;;;;;5118445;27;20202;-79
2022/05/08 05:33:53;;;;;;;9.82;6.07;;;15.20;99.90;;;;;;5132561;27;20042;-79
2022/05/08 05:36:39;;;;;;;134.32;76.03;;;15.20;99.90;;;;;;5133005;27;20065;-76
2022/05/08 05:39:25;;;;;;;45.15;30.80;;;15.30;99.90;;;;;;5132385;27;20049;-79
2022/05/08 05:42:11;;;;;;;20.73;13.25;;;15.40;99.90;;;;;;5131719;27;20406;-77
2022/05/08 05:44:58;;;;;;;28.17;19.80;;;15.20;99.90;;;;;;5111253;27;20128;-77
2022/05/08 05:47:50;;;;;;;49.60;30.65;;;15.30;99.90;;;;;;5131860;27;20116;-75
2022/05/08 05:50:36;;;;;;;65.38;44.00;;;15.50;99.90;;;;;;5132518;27;20103;-75
2022/05/08 05:53:22;;;;;;;20.20;13.40;;;15.50;99.90;;;;;;5131760;27;20038;-77
2022/05/08 05:56:09;;;;;;;13.32;8.30;;;15.60;99.90;;;;;;5130882;27;20143;-76
2022/05/08 05:58:55;;;;;;;32.83;20.48;;;15.80;99.90;;;;;;5131968;27;20185;-79
2022/05/08 06:01:41;;;;;;;29.00;19.20;;;15.90;99.90;;;;;;5131151;27;20651;-78
2022/05/08 06:04:28;;;;;;;26.08;18.85;;;15.70;99.90;;;;;;5131695;27;20456;-78
2022/05/08 06:07:13;;;;;;;13.82;10.07;;;15.70;99.90;;;;;;5116913;27;20131;-79
2022/05/08 06:10:00;;;;;;;8.57;5.10;;;15.90;99.90;;;;;;5132950;27;20046;-77
2022/05/08 06:12:47;;;;;;;8.23;5.90;;;15.80;99.90;;;;;;5112203;28;20514;-74
2022/05/08 06:15:33;;;;;;;36.10;24.35;;;15.90;99.90;;;;;;5112365;28;20157;-78
2022/05/08 06:18:19;;;;;;;48.75;31.95;;;16.20;99.90;;;;;;5111971;28;20047;-79
2022/05/08 06:21:05;;;;;;;42.92;28.30;;;16.10;99.90;;;;;;5112232;28;20051;-80
2022/05/08 06:23:54;;;;;;;13.85;7.03;;;16.30;99.90;;;;;;5111800;28;20529;-75
2022/05/08 06:26:39;;;;;;;9.25;4.78;;;16.20;99.90;;;;;;5106894;28;20089;-84
2022/05/08 06:29:28;;;;;;;8.48;5.22;;;16.20;99.90;;;;;;5123371;28;20042;-85
2022/05/08 06:32:14;;;;;;;11.68;4.72;;;16.10;99.90;;;;;;5126819;28;20540;-83
2022/05/08 06:35:01;;;;;;;7.28;4.90;;;16.00;99.90;;;;;;5127405;28;20180;-83
2022/05/08 06:37:47;;;;;;;8.60;4.68;;;16.00;99.90;;;;;;5127511;28;20051;-83
2022/05/08 06:40:33;;;;;;;10.15;5.05;;;16.00;99.90;;;;;;5125492;28;20108;-86
2022/05/08 06:43:19;;;;;;;13.85;6.22;;;15.90;99.90;;;;;;5127142;28;20603;-85
2022/05/08 06:46:05;;;;;;;8.23;5.07;;;15.90;99.90;;;;;;5131712;27;20045;-87
2022/05/08 06:48:51;;;;;;;9.52;5.50;;;15.90;99.90;;;;;;5116610;27;20176;-85
2022/05/08 06:51:36;;;;;;;9.18;5.43;;;16.00;99.90;;;;;;5132095;27;20046;-78
2022/05/08 06:54:23;;;;;;;10.82;5.25;;;16.00;99.90;;;;;;5131321;27;20181;-86
2022/05/08 06:57:11;;;;;;;10.88;5.45;;;16.10;99.90;;;;;;5130446;27;20049;-82
2022/05/08 07:03:04;;;;;;;11.23;5.32;;;16.10;99.90;;;;;;5130579;27;20505;-80
2022/05/08 07:05:51;;;;;;;11.23;4.65;;;16.20;99.90;;;;;;5130933;27;20495;-74
2022/05/08 07:08:37;;;;;;;14.55;4.88;;;16.30;99.90;;;;;;5125923;27;20114;-72
2022/05/08 07:11:23;;;;;;;11.05;6.30;;;16.50;99.90;;;;;;5116858;27;20054;-85
2022/05/08 07:14:09;;;;;;;7.00;4.45;;;16.50;99.90;;;;;;5116938;27;20128;-84
2022/05/08 07:16:55;;;;;;;9.57;4.85;;;16.50;99.90;;;;;;5115257;27;20138;-84
2022/05/08 07:19:41;;;;;;;9.25;4.80;;;16.90;99.90;;;;;;5131130;27;20107;-80
2022/05/08 07:22:27;;;;;;;9.82;4.40;;;16.80;99.90;;;;;;5131924;27;20050;-82
2022/05/08 07:25:13;;;;;;;7.40;4.13;;;16.90;99.90;;;;;;5116704;27;20521;-82
2022/05/08 07:27:59;;;;;;;11.73;5.28;;;16.90;99.90;;;;;;5127310;27;20389;-74
2022/05/08 07:30:45;;;;;;;8.45;4.45;;;16.90;99.90;;;;;;5131580;27;20058;-74
2022/05/08 07:33:34;;;;;;;7.97;3.83;;;16.90;99.70;;;;;;5114259;27;20789;-82
2022/05/08 07:36:20;;;;;;;8.10;4.63;;;17.10;98.50;;;;;;5128005;27;20072;-76
2022/05/08 07:39:06;;;;;;;10.18;4.35;;;17.00;98.40;;;;;;5128523;27;20390;-76
2022/05/08 07:41:52;;;;;;;9.32;4.93;;;17.00;97.60;;;;;;5113258;27;20525;-77
2022/05/08 07:44:38;;;;;;;8.80;3.97;;;17.10;97.90;;;;;;5114607;27;20058;-78
2022/05/08 07:47:24;;;;;;;7.72;4.30;;;17.10;97.30;;;;;;5115084;27;20131;-83
2022/05/08 07:50:10;;;;;;;7.55;4.30;;;17.10;97.30;;;;;;5132195;27;20053;-85
2022/05/08 07:52:56;;;;;;;6.78;4.18;;;17.00;97.30;;;;;;5133021;27;20100;-83
2022/05/08 07:55:42;;;;;;;8.10;4.28;;;17.00;97.10;;;;;;5112066;28;20051;-80
2022/05/08 07:58:31;;;;;;;8.82;4.32;;;17.20;98.00;;;;;;5112026;28;20682;-85
2022/05/08 08:01:20;;;;;;;8.05;4.85;;;17.30;97.80;;;;;;5113017;28;20050;-85
2022/05/08 08:04:26;;;;;;;6.50;4.03;;;17.50;97.30;;;;;;5110895;28;20509;-76
2022/05/08 08:07:12;;;;;;;8.45;4.32;;;17.40;97.00;;;;;;5111669;28;20054;-81
2022/05/08 08:09:58;;;;;;;5.65;3.58;;;17.50;97.40;;;;;;5111927;28;20050;-77
2022/05/08 08:12:45;;;;;;;56.13;34.20;;;17.50;98.30;;;;;;5098935;28;20441;-79
2022/05/08 08:15:32;;;;;;;51.67;35.33;;;17.90;98.00;;;;;;5113660;28;20117;-83
2022/05/08 08:18:18;;;;;;;25.50;19.33;;;17.80;97.30;;;;;;5114076;28;20058;-75
2022/05/08 08:21:04;;;;;;;28.00;17.85;;;18.00;97.70;;;;;;5114141;28;20058;-83
2022/05/08 08:23:50;;;;;;;21.52;15.05;;;18.00;97.00;;;;;;5112382;28;20046;-82
2022/05/08 08:26:39;;;;;;;7.93;5.30;;;18.20;97.00;;;;;;5104518;28;20055;-75
2022/05/08 08:29:25;;;;;;;7.90;4.43;;;18.10;96.30;;;;;;5113510;28;20051;-85
2022/05/08 08:32:11;;;;;;;8.13;4.32;;;18.10;97.00;;;;;;5113884;28;20639;-76
2022/05/08 08:34:57;;;;;;;12.95;5.00;;;18.20;96.50;;;;;;5113479;28;20039;-80
2022/05/08 08:37:43;;;;;;;7.68;3.85;;;18.10;95.70;;;;;;5098138;28;20046;-80
2022/05/08 08:40:31;;;;;;;6.88;4.38;;;18.00;96.00;;;;;;5098071;28;20054;-79
2022/05/08 08:43:17;;;;;;;7.63;4.03;;;18.10;96.60;;;;;;5113769;28;20058;-84
2022/05/08 08:49:30;;;;;;;6.93;4.03;;;18.10;96.90;;;;;;5112921;28;20134;-81
2022/05/08 08:52:16;;;;;;;11.98;7.57;;;18.40;97.00;;;;;;5113398;28;20051;-83
2022/05/08 08:55:05;;;;;;;9.05;6.22;;;18.80;96.90;;;;;;5128167;27;20150;-78
2022/05/08 08:57:51;;;;;;;10.38;4.97;;;18.90;96.90;;;;;;5134157;27;20058;-86
2022/05/08 09:00:37;;;;;;;10.93;5.32;;;18.70;95.60;;;;;;5118417;27;20054;-81
2022/05/08 09:03:25;;;;;;;8.23;4.65;;;18.90;95.60;;;;;;5133914;27;20083;-82
2022/05/08 09:06:11;;;;;;;8.63;5.00;;;18.80;95.50;;;;;;5133637;27;20054;-82
2022/05/08 09:08:59;;;;;;;10.90;5.40;;;18.80;96.10;;;;;;5133483;27;20045;-80
2022/05/08 09:11:44;;;;;;;7.25;4.15;;;18.90;95.10;;;;;;5128260;27;20104;-84
2022/05/08 09:14:36;;;;;;;19.90;14.52;;;19.00;96.10;;;;;;5112724;28;20225;-86
2022/05/08 09:17:50;;;;;;;50.15;31.60;;;19.20;95.70;;;;;;5113567;28;20055;-87
2022/05/08 09:20:44;;;;;;;23.83;14.93;;;19.30;94.50;;;;;;5126095;27;20050;-88
2022/05/08 09:23:30;;;;;;;8.15;4.90;;;19.40;94.20;;;;;;5133584;27;20069;-81
2022/05/08 09:26:26;;;;;;;11.45;4.80;;;19.40;94.10;;;;;;5133104;27;20061;-89
2022/05/08 09:29:22;;;;;;;12.70;5.10;;;19.10;94.00;;;;;;5133392;27;20049;-81
2022/05/08 09:32:08;;;;;;;11.75;5.00;;;19.50;93.30;;;;;;5118031;27;20050;-81
2022/05/08 09:34:58;;;;;;;11.68;4.93;;;19.60;92.80;;;;;;5132975;27;20123;-84
2022/05/08 09:37:53;;;;;;;12.25;4.78;;;19.90;91.60;;;;;;5133300;27;20080;-85
2022/05/08 09:40:39;;;;;;;9.80;4.93;;;19.80;90.00;;;;;;5133065;27;20177;-82
2022/05/08 09:43:28;;;;;;;9.13;4.55;;;19.60;92.00;;;;;;5133664;27;20046;-78
2022/05/08 09:46:15;;;;;;;7.68;4.47;;;19.70;91.30;;;;;;5133639;27;20054;-84
2022/05/08 09:49:01;;;;;;;8.57;4.00;;;19.80;92.80;;;;;;5133143;27;20061;-80
2022/05/08 09:51:48;;;;;;;10.80;4.72;;;19.90;92.10;;;;;;5118124;27;20039;-84
2022/05/08 09:54:34;;;;;;;6.55;3.90;;;19.90;91.20;;;;;;5133028;27;20537;-85
2022/05/08 09:57:22;;;;;;;21.67;13.85;;;19.90;91.80;;;;;;5132727;27;20584;-82
2022/05/08 10:00:10;;;;;;;25.17;17.88;;;20.10;90.20;;;;;;5132656;27;20050;-82
2022/05/08 10:02:56;;;;;;;52.33;39.30;;;20.20;90.20;;;;;;5117191;27;20050;-75
2022/05/08 10:05:43;;;;;;;28.90;20.25;;;20.50;88.40;;;;;;5132179;27;20057;-80
2022/05/08 10:08:33;;;;;;;25.23;17.50;;;20.50;91.30;;;;;;5132766;27;20083;-72
2022/05/08 10:14:24;;;;;;;6.72;3.42;;;20.60;84.70;;;;;;5111972;28;20109;-82
2022/05/08 10:17:13;;;;;;;6.63;3.45;;;20.80;84.30;;;;;;5112383;28;20118;-85
2022/05/08 10:20:00;;;;;;;7.95;3.58;;;20.70;81.90;;;;;;5111554;28;20134;-81
2022/05/08 10:22:49;;;;;;;21.20;5.07;;;20.60;84.90;;;;;;5113404;28;20089;-80
2022/05/08 10:25:35;;;;;;;7.00;3.83;;;20.80;87.00;;;;;;5090946;28;20047;-80
2022/05/08 10:28:21;;;;;;;6.85;3.63;;;21.10;84.60;;;;;;5114111;28;20051;-80
2022/05/08 10:31:43;;;;;;;5.95;3.67;;;20.90;85.60;;;;;;5119502;28;20054;-86
2022/05/08 10:34:34;;;;;;;16.67;6.28;;;20.70;77.80;;;;;;5115199;28;20082;-84
2022/05/08 10:37:25;;;;;;;11.25;6.22;;;20.70;75.30;;;;;;5116459;28;20050;-82
2022/05/08 10:40:24;;;;;;;16.75;8.77;;;21.00;79.90;;;;;;5112346;28;20128;-78
2022/05/08 10:43:12;;;;;;;8.07;4.57;;;21.40;77.30;;;;;;5117433;28;20415;-82
2022/05/08 10:46:19;;;;;;;7.88;4.28;;;21.40;78.00;;;;;;5120038;28;20046;-80
2022/05/08 10:49:05;;;;;;;8.77;3.53;;;21.40;79.10;;;;;;5100545;28;20088;-81
2022/05/08 10:51:51;;;;;;;7.85;3.50;;;21.40;78.20;;;;;;5095056;28;20066;-86
2022/05/08 10:54:37;;;;;;;8.45;3.28;;;21.20;75.30;;;;;;5113550;28;20050;-82
2022/05/08 10:57:33;;;;;;;10.43;3.80;;;21.20;72.30;;;;;;5114978;28;20047;-84
2022/05/08 11:00:28;;;;;;;11.32;3.65;;;21.40;71.40;;;;;;5119170;28;20434;-85
2022/05/08 11:03:21;;;;;;;8.40;4.20;;;21.50;73.50;;;;;;5114571;28;20065;-78
2022/05/08 11:06:07;;;;;;;8.73;4.03;;;21.30;73.70;;;;;;5101066;28;20398;-84
2022/05/08 11:09:00;;;;;;;6.50;3.22;;;21.00;74.80;;;;;;5110886;28;20120;-85
2022/05/08 11:11:47;;;;;;;9.07;3.42;;;20.90;74.10;;;;;;5116512;28;20056;-85
2022/05/08 11:14:32;;;;;;;15.95;7.18;;;20.80;72.50;;;;;;5109361;28;20477;-81
2022/05/08 11:17:24;;;;;;;20.30;14.25;;;20.70;72.70;;;;;;5115213;28;20050;-77
2022/05/08 11:20:10;;;;;;;8.48;5.38;;;20.70;71.20;;;;;;5113818;28;20054;-77
2022/05/08 11:22:56;;;;;;;22.58;15.10;;;20.60;71.60;;;;;;5111630;28;20112;-79
2022/05/08 11:25:49;;;;;;;16.77;9.32;;;20.80;71.60;;;;;;5109836;28;20067;-80
2022/05/08 11:28:48;;;;;;;25.67;17.38;;;20.70;67.80;;;;;;5101811;28;20139;-79
2022/05/08 11:31:35;;;;;;;12.70;7.22;;;20.90;68.10;;;;;;5118089;27;20132;-80
2022/05/08 11:37:28;;;;;;;8.10;4.65;;;21.50;68.00;;;;;;5119788;27;20421;-80
2022/05/08 11:40:16;;;;;;;5.88;2.92;;;21.40;69.00;;;;;;5098268;28;20120;-78
2022/05/08 11:43:02;;;;;;;8.20;3.25;;;21.30;64.80;;;;;;5107842;28;20140;-79
2022/05/08 11:46:00;;;;;;;7.75;3.20;;;21.40;65.30;;;;;;5104439;28;20046;-82
2022/05/08 11:48:50;;;;;;;9.80;4.38;;;21.60;65.40;;;;;;5088925;28;20051;-79
2022/05/08 11:51:53;;;;;;;12.25;5.95;;;21.80;64.20;;;;;;5087643;28;20053;-82
2022/05/08 11:54:55;;;;;;;7.93;3.33;;;21.90;66.20;;;;;;5097574;28;20059;-81
2022/05/08 11:57:43;;;;;;;8.60;4.05;;;22.00;64.90;;;;;;5092504;28;20528;-80
2022/05/08 12:00:31;;;;;;;9.95;3.63;;;22.00;64.20;;;;;;5112734;28;20046;-79
2022/05/08 12:03:29;;;;;;;7.45;3.90;;;22.10;63.00;;;;;;5101906;28;20043;-79
2022/05/08 12:06:16;;;;;;;10.55;3.38;;;22.50;63.30;;;;;;5103765;28;20055;-80
2022/05/08 12:09:07;;;;;;;9.90;3.03;;;22.30;61.60;;;;;;5094198;28;20067;-78
2022/05/08 12:11:52;;;;;;;6.95;3.60;;;22.40;61.90;;;;;;5082938;28;20133;-81
2022/05/08 12:14:39;;;;;;;7.88;3.72;;;22.40;62.30;;;;;;5080213;28;20078;-79
2022/05/08 12:17:26;;;;;;;13.13;4.03;;;22.20;63.50;;;;;;5096936;28;20100;-81
2022/05/08 12:20:26;;;;;;;8.80;3.53;;;21.90;66.40;;;;;;5094596;28;20046;-81
2022/05/08 12:23:12;;;;;;;12.80;4.30;;;21.80;65.40;;;;;;5111252;28;20050;-80
2022/05/08 12:25:59;;;;;;;9.48;3.55;;;21.80;65.90;;;;;;5109179;28;20050;-78
2022/05/08 12:28:45;;;;;;;13.30;3.63;;;21.60;63.90;;;;;;5094992;28;20055;-77
2022/05/08 12:31:31;;;;;;;6.85;3.50;;;21.60;65.70;;;;;;5110265;28;20639;-78
2022/05/08 12:34:22;;;;;;;9.45;3.53;;;21.50;65.50;;;;;;5112304;28;20184;-79
2022/05/08 12:37:13;;;;;;;8.02;3.60;;;21.50;65.70;;;;;;5096281;28;20038;-78
2022/05/08 12:40:00;;;;;;;13.18;3.85;;;21.50;66.30;;;;;;5110235;28;20042;-82
2022/05/08 12:42:46;;;;;;;7.65;3.88;;;21.40;65.90;;;;;;5104100;28;20119;-83
2022/05/08 12:45:37;;;;;;;11.43;3.60;;;21.30;66.90;;;;;;5106453;28;20089;-85
2022/05/08 12:48:24;;;;;;;7.10;4.53;;;21.40;65.90;;;;;;5110883;28;20047;-80
2022/05/08 12:51:18;;;;;;;11.85;3.80;;;21.50;66.40;;;;;;5112159;28;20051;-81
2022/05/08 12:54:04;;;;;;;6.10;3.35;;;21.90;66.80;;;;;;5111004;28;20089;-83
2022/05/08 12:56:50;;;;;;;5.68;3.10;;;22.10;65.30;;;;;;5107852;27;20047;-80
2022/05/08 13:00:03;;;;;;;7.07;3.05;;;22.10;64.40;;;;;;5113911;27;20042;-85
2022/05/08 13:02:49;;;;;;;8.05;3.72;;;22.60;65.10;;;;;;5122880;27;20034;-84
2022/05/08 13:05:36;;;;;;;6.57;3.28;;;22.80;63.00;;;;;;5118744;27;20051;-85
2022/05/08 13:08:25;;;;;;;6.60;3.35;;;22.90;63.00;;;;;;5121385;27;20120;-84
2022/05/08 13:11:12;;;;;;;12.07;5.55;;;23.10;62.10;;;;;;5116764;27;20519;-84
2022/05/08 13:13:58;;;;;;;8.10;3.00;;;23.10;61.70;;;;;;5113158;28;20073;-81
2022/05/08 13:16:46;;;;;;;6.07;2.80;;;23.00;61.80;;;;;;5115107;27;20057;-79
2022/05/08 13:19:33;;;;;;;8.23;3.30;;;23.10;62.90;;;;;;5120711;27;20047;-79
2022/05/08 13:22:20;;;;;;;6.20;3.42;;;22.90;63.20;;;;;;5107542;27;20089;-83
2022/05/08 13:25:10;;;;;;;7.20;2.85;;;22.80;63.50;;;;;;5116527;27;20128;-85
2022/05/08 13:28:00;;;;;;;9.25;3.50;;;22.90;62.80;;;;;;5107843;27;20054;-81
2022/05/08 13:30:46;;;;;;;5.90;2.90;;;22.90;62.30;;;;;;5119321;27;20055;-81
2022/05/08 13:33:33;;;;;;;9.10;3.10;;;23.20;62.40;;;;;;5123065;27;20108;-82
2022/05/08 13:36:23;;;;;;;8.40;2.90;;;23.40;60.80;;;;;;5127841;27;20062;-81
2022/05/08 13:39:18;;;;;;;8.05;2.60;;;23.80;60.70;;;;;;5106479;27;20043;-82
2022/05/08 13:42:05;;;;;;;8.45;3.28;;;23.60;58.50;;;;;;5109301;28;20050;-81
2022/05/08 13:44:55;;;;;;;5.80;2.15;;;23.70;57.30;;;;;;5092924;28;20505;-79
2022/05/08 13:47:41;;;;;;;5.32;2.30;;;23.70;56.40;;;;;;5105781;28;20089;-82
2022/05/08 13:50:27;;;;;;;6.75;2.65;;;23.90;56.30;;;;;;5107237;28;20054;-81
2022/05/08 13:53:14;;;;;;;6.60;2.80;;;23.90;56.20;;;;;;5095887;28;20054;-80
2022/05/08 13:56:02;;;;;;;6.60;2.60;;;23.90;55.80;;;;;;5111629;28;20058;-78
2022/05/08 13:58:47;;;;;;;7.88;2.55;;;24.10;56.80;;;;;;5094887;28;20113;-81
2022/05/08 14:01:37;;;;;;;13.07;5.72;;;24.20;56.80;;;;;;5097871;28;20058;-84
2022/05/08 14:04:23;;;;;;;8.90;3.63;;;23.90;56.60;;;;;;5095472;28;20530;-81
2022/05/08 14:07:12;;;;;;;6.15;2.75;;;23.90;57.10;;;;;;5093066;28;20058;-80
2022/05/08 14:09:57;;;;;;;7.32;3.28;;;24.30;57.00;;;;;;5110835;28;20578;-80
2022/05/08 14:12:45;;;;;;;6.70;2.65;;;25.10;55.80;;;;;;5094433;28;20407;-80
2022/05/08 14:15:33;;;;;;;6.03;2.87;;;25.30;55.20;;;;;;5094478;28;20180;-81
2022/05/08 14:18:19;;;;;;;7.47;3.45;;;25.50;54.30;;;;;;5094636;28;20112;-83
2022/05/08 14:21:05;;;;;;;8.23;3.47;;;26.00;54.10;;;;;;5123492;28;20054;-81
2022/05/08 14:23:56;;;;;;;11.38;4.97;;;25.90;53.80;;;;;;5110007;28;20121;-81
2022/05/08 14:26:42;;;;;;;83.97;57.25;;;25.90;54.60;;;;;;5099909;28;20058;-83
2022/05/08 14:29:27;;;;;;;37.42;25.67;;;26.40;55.60;;;;;;5112241;28;20062;-82
2022/05/08 14:38:22;;;;;;;9.63;3.58;;;25.30;55.90;;;;;;5114257;28;20161;-74
2022/05/08 14:41:13;;;;;;;9.48;3.47;;;25.30;55.50;;;;;;5118820;28;20105;-75
2022/05/08 14:44:01;;;;;;;8.23;3.47;;;25.60;55.70;;;;;;5108919;28;20199;-77
2022/05/08 14:46:47;;;;;;;6.88;3.28;;;26.60;55.20;;;;;;5097345;28;20114;-77
2022/05/08 14:49:33;;;;;;;5.70;2.88;;;25.50;54.90;;;;;;5123326;28;20053;-77